sensor_id;sensor_type;location;lat;lon;timestamp;P1;durP1;ratioP1;P2;durP2;ratioP2
74849;SDS011;63397;47.480;19.238;2023-04-25T00:01:07;5.25;;;2.38;;
74849;SDS011;63397;47.480;19.238;2023-04-25T00:04:10;5.57;;;2.40;;
74849;SDS011;63397;47.480;19.238;2023-04-25T00:07:14;5.57;;;2.47;;
74849;SDS011;63397;47.480;19.238;2023-04-25T00:10:16;5.43;;;2.50;;
74849;SDS011;63397;47.480;19.238;2023-04-25T00:13:18;6.30;;;2.20;;
74849;SDS011;63397;47.480;19.238;2023-04-25T00:16:21;5.97;;;2.28;;
74849;SDS011;63397;47.480;19.238;2023-04-25T00:19:23;4.38;;;1.92;;
74849;SDS011;63397;47.480;19.238;2023-04-25T00:22:25;5.50;;;2.47;;
74849;SDS011;63397;47.480;19.238;2023-04-25T00:25:27;5.30;;;2.05;;
74849;SDS011;63397;47.480;19.238;2023-04-25T00:28:30;4.33;;;2.03;;
74849;SDS011;63397;47.480;19.238;2023-04-25T00:31:32;5.68;;;2.10;;
74849;SDS011;63397;47.480;19.238;2023-04-25T00:34:36;5.80;;;2.50;;
74849;SDS011;63397;47.480;19.238;2023-04-25T00:37:38;4.88;;;1.80;;
74849;SDS011;63397;47.480;19.238;2023-04-25T00:40:40;4.50;;;1.80;;
74849;SDS011;63397;47.480;19.238;2023-04-25T00:43:45;4.30;;;2.00;;
74849;SDS011;63397;47.480;19.238;2023-04-25T00:46:48;5.13;;;1.90;;
74849;SDS011;63397;47.480;19.238;2023-04-25T00:49:53;3.45;;;1.60;;
74849;SDS011;63397;47.480;19.238;2023-04-25T00:52:55;4.10;;;1.77;;
74849;SDS011;63397;47.480;19.238;2023-04-25T00:55:58;4.07;;;1.73;;
74849;SDS011;63397;47.480;19.238;2023-04-25T00:59:00;3.40;;;1.57;;
74849;SDS011;63397;47.480;19.238;2023-04-25T01:02:03;5.00;;;1.48;;
74849;SDS011;63397;47.480;19.238;2023-04-25T01:05:06;3.22;;;1.40;;
74849;SDS011;63397;47.480;19.238;2023-04-25T01:08:09;2.92;;;1.27;;
74849;SDS011;63397;47.480;19.238;2023-04-25T01:11:12;3.70;;;1.70;;
74849;SDS011;63397;47.480;19.238;2023-04-25T01:14:14;3.57;;;1.60;;
74849;SDS011;63397;47.480;19.238;2023-04-25T01:17:17;3.53;;;1.33;;
74849;SDS011;63397;47.480;19.238;2023-04-25T01:20:23;4.05;;;1.52;;
74849;SDS011;63397;47.480;19.238;2023-04-25T01:23:25;3.92;;;1.70;;
74849;SDS011;63397;47.480;19.238;2023-04-25T01:26:28;4.45;;;1.70;;
74849;SDS011;63397;47.480;19.238;2023-04-25T01:29:30;3.67;;;1.40;;
74849;SDS011;63397;47.480;19.238;2023-04-25T01:32:33;4.18;;;1.55;;
74849;SDS011;63397;47.480;19.238;2023-04-25T01:35:40;3.50;;;1.60;;
74849;SDS011;63397;47.480;19.238;2023-04-25T01:38:42;4.22;;;1.83;;
74849;SDS011;63397;47.480;19.238;2023-04-25T01:41:46;4.47;;;1.85;;
74849;SDS011;63397;47.480;19.238;2023-04-25T01:44:48;4.47;;;1.90;;
74849;SDS011;63397;47.480;19.238;2023-04-25T01:47:51;4.05;;;1.75;;
74849;SDS011;63397;47.480;19.238;2023-04-25T01:50:53;4.15;;;1.90;;
74849;SDS011;63397;47.480;19.238;2023-04-25T01:53:55;4.65;;;1.92;;
74849;SDS011;63397;47.480;19.238;2023-04-25T01:57:01;5.18;;;2.08;;
74849;SDS011;63397;47.480;19.238;2023-04-25T02:00:06;4.63;;;2.17;;
74849;SDS011;63397;47.480;19.238;2023-04-25T02:03:14;4.80;;;2.03;;
74849;SDS011;63397;47.480;19.238;2023-04-25T02:06:17;4.55;;;1.80;;
74849;SDS011;63397;47.480;19.238;2023-04-25T02:09:21;4.70;;;2.20;;
74849;SDS011;63397;47.480;19.238;2023-04-25T02:12:27;4.85;;;2.22;;
74849;SDS011;63397;47.480;19.238;2023-04-25T02:15:59;4.73;;;2.10;;
74849;SDS011;63397;47.480;19.238;2023-04-25T02:19:01;5.70;;;2.10;;
74849;SDS011;63397;47.480;19.238;2023-04-25T02:22:05;6.38;;;2.20;;
74849;SDS011;63397;47.480;19.238;2023-04-25T02:25:07;4.97;;;2.10;;
74849;SDS011;63397;47.480;19.238;2023-04-25T02:28:10;5.57;;;2.42;;
74849;SDS011;63397;47.480;19.238;2023-04-25T02:31:12;5.43;;;2.60;;
74849;SDS011;63397;47.480;19.238;2023-04-25T02:34:15;5.63;;;2.55;;
74849;SDS011;63397;47.480;19.238;2023-04-25T02:37:17;7.07;;;2.50;;
74849;SDS011;63397;47.480;19.238;2023-04-25T02:40:20;5.05;;;2.15;;
74849;SDS011;63397;47.480;19.238;2023-04-25T02:43:22;5.82;;;2.85;;
74849;SDS011;63397;47.480;19.238;2023-04-25T02:46:26;5.07;;;2.50;;
74849;SDS011;63397;47.480;19.238;2023-04-25T02:49:40;5.03;;;1.90;;
74849;SDS011;63397;47.480;19.238;2023-04-25T02:52:42;4.22;;;2.13;;
74849;SDS011;63397;47.480;19.238;2023-04-25T02:55:51;5.22;;;2.20;;
74849;SDS011;63397;47.480;19.238;2023-04-25T02:58:54;4.30;;;2.17;;
74849;SDS011;63397;47.480;19.238;2023-04-25T03:01:57;3.87;;;2.20;;
74849;SDS011;63397;47.480;19.238;2023-04-25T03:04:59;3.90;;;1.67;;
74849;SDS011;63397;47.480;19.238;2023-04-25T03:08:03;3.75;;;1.60;;
74849;SDS011;63397;47.480;19.238;2023-04-25T03:11:07;4.90;;;1.30;;
74849;SDS011;63397;47.480;19.238;2023-04-25T03:14:09;3.00;;;1.20;;
74849;SDS011;63397;47.480;19.238;2023-04-25T03:17:12;4.07;;;1.40;;
74849;SDS011;63397;47.480;19.238;2023-04-25T03:20:14;2.78;;;0.88;;
74849;SDS011;63397;47.480;19.238;2023-04-25T03:23:16;2.90;;;1.10;;
74849;SDS011;63397;47.480;19.238;2023-04-25T03:26:19;3.67;;;1.63;;
74849;SDS011;63397;47.480;19.238;2023-04-25T03:29:22;3.17;;;1.30;;
74849;SDS011;63397;47.480;19.238;2023-04-25T03:32:28;2.90;;;1.40;;
74849;SDS011;63397;47.480;19.238;2023-04-25T03:35:31;3.10;;;1.30;;
74849;SDS011;63397;47.480;19.238;2023-04-25T03:38:33;3.28;;;1.40;;
74849;SDS011;63397;47.480;19.238;2023-04-25T03:41:35;3.95;;;1.45;;
74849;SDS011;63397;47.480;19.238;2023-04-25T03:44:43;4.43;;;1.58;;
74849;SDS011;63397;47.480;19.238;2023-04-25T03:47:45;4.07;;;1.80;;
74849;SDS011;63397;47.480;19.238;2023-04-25T03:50:48;3.28;;;1.58;;
74849;SDS011;63397;47.480;19.238;2023-04-25T03:53:51;3.92;;;1.50;;
74849;SDS011;63397;47.480;19.238;2023-04-25T03:56:54;3.65;;;1.50;;
74849;SDS011;63397;47.480;19.238;2023-04-25T03:59:58;3.33;;;1.40;;
74849;SDS011;63397;47.480;19.238;2023-04-25T04:03:03;5.93;;;1.57;;
74849;SDS011;63397;47.480;19.238;2023-04-25T04:06:07;3.80;;;1.55;;
74849;SDS011;63397;47.480;19.238;2023-04-25T04:09:16;3.58;;;1.50;;
74849;SDS011;63397;47.480;19.238;2023-04-25T04:12:19;5.03;;;1.50;;
74849;SDS011;63397;47.480;19.238;2023-04-25T04:15:21;4.13;;;1.60;;
74849;SDS011;63397;47.480;19.238;2023-04-25T04:18:24;3.00;;;1.23;;
74849;SDS011;63397;47.480;19.238;2023-04-25T04:21:27;2.55;;;1.13;;
74849;SDS011;63397;47.480;19.238;2023-04-25T04:24:30;2.90;;;1.10;;
74849;SDS011;63397;47.480;19.238;2023-04-25T04:27:36;2.28;;;1.00;;
74849;SDS011;63397;47.480;19.238;2023-04-25T04:31:14;3.13;;;0.95;;
74849;SDS011;63397;47.480;19.238;2023-04-25T04:34:18;2.73;;;0.97;;
74849;SDS011;63397;47.480;19.238;2023-04-25T04:37:20;2.35;;;0.93;;
74849;SDS011;63397;47.480;19.238;2023-04-25T04:40:22;2.83;;;1.10;;
74849;SDS011;63397;47.480;19.238;2023-04-25T04:43:29;3.97;;;1.23;;
74849;SDS011;63397;47.480;19.238;2023-04-25T04:46:43;3.33;;;1.50;;
74849;SDS011;63397;47.480;19.238;2023-04-25T04:50:00;3.37;;;1.30;;
74849;SDS011;63397;47.480;19.238;2023-04-25T04:53:20;4.03;;;1.60;;
74849;SDS011;63397;47.480;19.238;2023-04-25T04:56:29;4.30;;;2.20;;
74849;SDS011;63397;47.480;19.238;2023-04-25T04:59:51;4.07;;;1.80;;
74849;SDS011;63397;47.480;19.238;2023-04-25T05:03:16;7.97;;;2.20;;
74849;SDS011;63397;47.480;19.238;2023-04-25T05:06:37;3.80;;;1.70;;
74849;SDS011;63397;47.480;19.238;2023-04-25T05:10:02;5.38;;;2.30;;
74849;SDS011;63397;47.480;19.238;2023-04-25T05:13:11;4.10;;;2.05;;
74849;SDS011;63397;47.480;19.238;2023-04-25T05:16:29;4.32;;;1.92;;
74849;SDS011;63397;47.480;19.238;2023-04-25T05:20:01;4.93;;;1.90;;
74849;SDS011;63397;47.480;19.238;2023-04-25T05:23:24;4.13;;;1.73;;
74849;SDS011;63397;47.480;19.238;2023-04-25T05:26:59;3.90;;;1.50;;
74849;SDS011;63397;47.480;19.238;2023-04-25T05:30:22;3.63;;;1.60;;
74849;SDS011;63397;47.480;19.238;2023-04-25T05:33:38;4.35;;;1.50;;
74849;SDS011;63397;47.480;19.238;2023-04-25T05:36:40;4.22;;;1.88;;
74849;SDS011;63397;47.480;19.238;2023-04-25T05:39:42;3.60;;;1.60;;
74849;SDS011;63397;47.480;19.238;2023-04-25T05:42:59;5.18;;;2.20;;
74849;SDS011;63397;47.480;19.238;2023-04-25T05:46:01;5.07;;;2.45;;
74849;SDS011;63397;47.480;19.238;2023-04-25T05:49:18;4.25;;;2.00;;
74849;SDS011;63397;47.480;19.238;2023-04-25T05:52:54;3.95;;;1.80;;
74849;SDS011;63397;47.480;19.238;2023-04-25T05:56:04;4.57;;;1.83;;
74849;SDS011;63397;47.480;19.238;2023-04-25T05:59:06;4.80;;;2.25;;
74849;SDS011;63397;47.480;19.238;2023-04-25T06:02:09;3.35;;;1.45;;
74849;SDS011;63397;47.480;19.238;2023-04-25T06:05:12;4.78;;;1.50;;
74849;SDS011;63397;47.480;19.238;2023-04-25T06:08:17;3.35;;;1.30;;
74849;SDS011;63397;47.480;19.238;2023-04-25T06:11:21;4.13;;;1.50;;
74849;SDS011;63397;47.480;19.238;2023-04-25T06:14:26;3.67;;;1.38;;
74849;SDS011;63397;47.480;19.238;2023-04-25T06:17:32;4.40;;;1.52;;
74849;SDS011;63397;47.480;19.238;2023-04-25T06:20:37;3.25;;;1.15;;
74849;SDS011;63397;47.480;19.238;2023-04-25T06:23:39;4.72;;;1.10;;
74849;SDS011;63397;47.480;19.238;2023-04-25T06:26:48;2.27;;;0.80;;
74849;SDS011;63397;47.480;19.238;2023-04-25T06:29:54;3.47;;;1.20;;
74849;SDS011;63397;47.480;19.238;2023-04-25T06:32:59;3.67;;;1.25;;
74849;SDS011;63397;47.480;19.238;2023-04-25T06:36:04;4.05;;;1.58;;
74849;SDS011;63397;47.480;19.238;2023-04-25T06:39:07;4.55;;;2.17;;
74849;SDS011;63397;47.480;19.238;2023-04-25T06:42:12;7.90;;;3.40;;
74849;SDS011;63397;47.480;19.238;2023-04-25T06:45:30;6.15;;;2.90;;
74849;SDS011;63397;47.480;19.238;2023-04-25T06:48:35;8.40;;;3.65;;
74849;SDS011;63397;47.480;19.238;2023-04-25T06:51:38;8.35;;;3.92;;
74849;SDS011;63397;47.480;19.238;2023-04-25T06:54:40;8.85;;;3.55;;
74849;SDS011;63397;47.480;19.238;2023-04-25T06:58:11;6.67;;;2.97;;
74849;SDS011;63397;47.480;19.238;2023-04-25T07:01:33;6.18;;;3.40;;
74849;SDS011;63397;47.480;19.238;2023-04-25T07:04:38;5.53;;;2.58;;
74849;SDS011;63397;47.480;19.238;2023-04-25T07:07:43;5.07;;;2.30;;
74849;SDS011;63397;47.480;19.238;2023-04-25T07:10:45;5.55;;;2.67;;
74849;SDS011;63397;47.480;19.238;2023-04-25T07:13:51;7.17;;;3.03;;
74849;SDS011;63397;47.480;19.238;2023-04-25T07:16:59;7.18;;;3.38;;
74849;SDS011;63397;47.480;19.238;2023-04-25T07:20:04;6.70;;;3.30;;
74849;SDS011;63397;47.480;19.238;2023-04-25T07:23:08;6.38;;;3.25;;
74849;SDS011;63397;47.480;19.238;2023-04-25T07:26:11;8.23;;;3.40;;
74849;SDS011;63397;47.480;19.238;2023-04-25T07:29:29;7.23;;;2.97;;
74849;SDS011;63397;47.480;19.238;2023-04-25T07:32:34;6.97;;;3.22;;
74849;SDS011;63397;47.480;19.238;2023-04-25T07:35:37;5.88;;;3.20;;
74849;SDS011;63397;47.480;19.238;2023-04-25T07:38:39;5.57;;;2.80;;
74849;SDS011;63397;47.480;19.238;2023-04-25T07:41:41;6.85;;;3.28;;
74849;SDS011;63397;47.480;19.238;2023-04-25T07:44:49;6.57;;;3.10;;
74849;SDS011;63397;47.480;19.238;2023-04-25T07:47:52;8.13;;;3.47;;
74849;SDS011;63397;47.480;19.238;2023-04-25T07:50:54;5.40;;;3.00;;
74849;SDS011;63397;47.480;19.238;2023-04-25T07:53:57;6.13;;;3.20;;
74849;SDS011;63397;47.480;19.238;2023-04-25T07:56:59;6.55;;;3.55;;
74849;SDS011;63397;47.480;19.238;2023-04-25T08:00:05;7.63;;;3.57;;
74849;SDS011;63397;47.480;19.238;2023-04-25T08:03:14;6.32;;;3.38;;
74849;SDS011;63397;47.480;19.238;2023-04-25T08:06:17;6.03;;;3.33;;
74849;SDS011;63397;47.480;19.238;2023-04-25T08:09:42;6.47;;;3.50;;
74849;SDS011;63397;47.480;19.238;2023-04-25T08:12:51;6.25;;;3.53;;
74849;SDS011;63397;47.480;19.238;2023-04-25T08:15:54;5.97;;;3.23;;
74849;SDS011;63397;47.480;19.238;2023-04-25T08:18:57;6.45;;;3.60;;
74849;SDS011;63397;47.480;19.238;2023-04-25T08:21:59;7.25;;;3.90;;
74849;SDS011;63397;47.480;19.238;2023-04-25T08:25:10;4.90;;;2.60;;
74849;SDS011;63397;47.480;19.238;2023-04-25T08:28:14;6.65;;;3.25;;
74849;SDS011;63397;47.480;19.238;2023-04-25T08:31:18;5.70;;;2.80;;
74849;SDS011;63397;47.480;19.238;2023-04-25T08:34:29;6.47;;;2.83;;
74849;SDS011;63397;47.480;19.238;2023-04-25T08:37:34;5.65;;;2.80;;
74849;SDS011;63397;47.480;19.238;2023-04-25T08:40:44;4.82;;;2.20;;
74849;SDS011;63397;47.480;19.238;2023-04-25T08:43:50;3.65;;;1.50;;
74849;SDS011;63397;47.480;19.238;2023-04-25T08:46:53;4.20;;;1.90;;
74849;SDS011;63397;47.480;19.238;2023-04-25T08:50:02;3.17;;;1.83;;
74849;SDS011;63397;47.480;19.238;2023-04-25T08:53:05;3.33;;;1.63;;
74849;SDS011;63397;47.480;19.238;2023-04-25T08:56:10;3.63;;;1.80;;
74849;SDS011;63397;47.480;19.238;2023-04-25T08:59:15;3.45;;;1.60;;
74849;SDS011;63397;47.480;19.238;2023-04-25T09:02:20;2.07;;;1.07;;
74849;SDS011;63397;47.480;19.238;2023-04-25T09:05:25;3.53;;;1.42;;
74849;SDS011;63397;47.480;19.238;2023-04-25T09:08:28;3.58;;;1.58;;
74849;SDS011;63397;47.480;19.238;2023-04-25T09:11:34;3.90;;;1.73;;
74849;SDS011;63397;47.480;19.238;2023-04-25T09:14:42;3.78;;;1.77;;
74849;SDS011;63397;47.480;19.238;2023-04-25T09:18:01;3.93;;;1.60;;
74849;SDS011;63397;47.480;19.238;2023-04-25T09:21:11;4.82;;;1.50;;
74849;SDS011;63397;47.480;19.238;2023-04-25T09:24:31;3.47;;;1.60;;
74849;SDS011;63397;47.480;19.238;2023-04-25T09:27:34;3.25;;;1.40;;
74849;SDS011;63397;47.480;19.238;2023-04-25T09:30:44;3.03;;;1.48;;
74849;SDS011;63397;47.480;19.238;2023-04-25T09:34:06;4.00;;;1.80;;
74849;SDS011;63397;47.480;19.238;2023-04-25T09:40:44;3.08;;;1.25;;
74849;SDS011;63397;47.480;19.238;2023-04-25T09:43:57;2.88;;;1.67;;
74849;SDS011;63397;47.480;19.238;2023-04-25T09:47:12;2.88;;;1.45;;
74849;SDS011;63397;47.480;19.238;2023-04-25T09:50:17;3.40;;;1.37;;
74849;SDS011;63397;47.480;19.238;2023-04-25T09:53:26;2.65;;;1.30;;
74849;SDS011;63397;47.480;19.238;2023-04-25T09:56:41;2.97;;;1.55;;
74849;SDS011;63397;47.480;19.238;2023-04-25T09:59:48;2.13;;;1.20;;
74849;SDS011;63397;47.480;19.238;2023-04-25T10:06:52;2.70;;;1.13;;
74849;SDS011;63397;47.480;19.238;2023-04-25T10:10:02;2.10;;;1.00;;
74849;SDS011;63397;47.480;19.238;2023-04-25T10:13:06;1.95;;;1.00;;
74849;SDS011;63397;47.480;19.238;2023-04-25T10:16:10;2.13;;;1.10;;
74849;SDS011;63397;47.480;19.238;2023-04-25T10:19:12;2.35;;;1.00;;
74849;SDS011;63397;47.480;19.238;2023-04-25T10:22:20;2.60;;;1.10;;
74849;SDS011;63397;47.480;19.238;2023-04-25T10:25:25;2.55;;;1.23;;
74849;SDS011;63397;47.480;19.238;2023-04-25T10:28:27;2.17;;;1.02;;
74849;SDS011;63397;47.480;19.238;2023-04-25T10:31:30;1.67;;;0.80;;
74849;SDS011;63397;47.480;19.238;2023-04-25T10:34:40;2.25;;;1.10;;
74849;SDS011;63397;47.480;19.238;2023-04-25T10:41:05;2.40;;;1.20;;
74849;SDS011;63397;47.480;19.238;2023-04-25T10:44:08;2.40;;;0.82;;
74849;SDS011;63397;47.480;19.238;2023-04-25T10:47:10;2.13;;;0.90;;
74849;SDS011;63397;47.480;19.238;2023-04-25T10:50:14;2.10;;;0.90;;
74849;SDS011;63397;47.480;19.238;2023-04-25T10:53:17;3.20;;;1.10;;
74849;SDS011;63397;47.480;19.238;2023-04-25T10:56:19;2.03;;;1.00;;
74849;SDS011;63397;47.480;19.238;2023-04-25T10:59:23;2.90;;;1.00;;
74849;SDS011;63397;47.480;19.238;2023-04-25T11:02:27;1.80;;;0.70;;
74849;SDS011;63397;47.480;19.238;2023-04-25T11:05:32;1.95;;;0.73;;
74849;SDS011;63397;47.480;19.238;2023-04-25T11:08:49;2.27;;;0.80;;
74849;SDS011;63397;47.480;19.238;2023-04-25T11:12:01;2.65;;;0.80;;
74849;SDS011;63397;47.480;19.238;2023-04-25T11:15:04;1.65;;;0.68;;
74849;SDS011;63397;47.480;19.238;2023-04-25T11:18:07;2.40;;;0.68;;
74849;SDS011;63397;47.480;19.238;2023-04-25T11:21:13;1.80;;;0.75;;
74849;SDS011;63397;47.480;19.238;2023-04-25T11:24:18;1.40;;;0.60;;
74849;SDS011;63397;47.480;19.238;2023-04-25T11:27:21;1.15;;;0.63;;
74849;SDS011;63397;47.480;19.238;2023-04-25T11:30:24;2.00;;;0.50;;
74849;SDS011;63397;47.480;19.238;2023-04-25T11:33:27;1.70;;;0.70;;
74849;SDS011;63397;47.480;19.238;2023-04-25T11:36:29;0.88;;;0.40;;
74849;SDS011;63397;47.480;19.238;2023-04-25T11:39:32;1.27;;;0.50;;
74849;SDS011;63397;47.480;19.238;2023-04-25T11:42:39;2.03;;;0.40;;
74849;SDS011;63397;47.480;19.238;2023-04-25T11:45:45;0.90;;;0.40;;
74849;SDS011;63397;47.480;19.238;2023-04-25T11:48:48;1.00;;;0.35;;
74849;SDS011;63397;47.480;19.238;2023-04-25T11:51:52;1.33;;;0.40;;
74849;SDS011;63397;47.480;19.238;2023-04-25T11:54:56;0.70;;;0.30;;
74849;SDS011;63397;47.480;19.238;2023-04-25T11:57:59;1.95;;;0.35;;
74849;SDS011;63397;47.480;19.238;2023-04-25T12:01:04;0.80;;;0.30;;
74849;SDS011;63397;47.480;19.238;2023-04-25T12:07:14;0.55;;;0.20;;
74849;SDS011;63397;47.480;19.238;2023-04-25T12:10:16;1.40;;;0.37;;
74849;SDS011;63397;47.480;19.238;2023-04-25T12:16:21;0.90;;;0.30;;
74849;SDS011;63397;47.480;19.238;2023-04-25T12:19:24;1.58;;;0.38;;
74849;SDS011;63397;47.480;19.238;2023-04-25T12:22:26;1.10;;;0.43;;
74849;SDS011;63397;47.480;19.238;2023-04-25T12:28:37;1.00;;;0.30;;
74849;SDS011;63397;47.480;19.238;2023-04-25T12:31:40;0.93;;;0.40;;
74849;SDS011;63397;47.480;19.238;2023-04-25T12:34:42;1.00;;;0.40;;
74849;SDS011;63397;47.480;19.238;2023-04-25T12:37:44;2.20;;;0.70;;
74849;SDS011;63397;47.480;19.238;2023-04-25T12:40:47;1.37;;;0.50;;
74849;SDS011;63397;47.480;19.238;2023-04-25T12:43:50;2.25;;;0.50;;
74849;SDS011;63397;47.480;19.238;2023-04-25T12:46:52;2.88;;;0.40;;
74849;SDS011;63397;47.480;19.238;2023-04-25T12:49:56;0.98;;;0.40;;
74849;SDS011;63397;47.480;19.238;2023-04-25T12:52:58;0.90;;;0.38;;
74849;SDS011;63397;47.480;19.238;2023-04-25T12:56:00;1.30;;;0.50;;
74849;SDS011;63397;47.480;19.238;2023-04-25T12:59:03;1.48;;;0.50;;
74849;SDS011;63397;47.480;19.238;2023-04-25T13:02:06;0.90;;;0.40;;
74849;SDS011;63397;47.480;19.238;2023-04-25T13:05:08;0.80;;;0.40;;
74849;SDS011;63397;47.480;19.238;2023-04-25T13:08:10;1.38;;;0.50;;
74849;SDS011;63397;47.480;19.238;2023-04-25T13:11:13;2.90;;;0.60;;
74849;SDS011;63397;47.480;19.238;2023-04-25T13:14:16;1.05;;;0.43;;
74849;SDS011;63397;47.480;19.238;2023-04-25T13:17:19;1.48;;;0.65;;
74849;SDS011;63397;47.480;19.238;2023-04-25T13:20:21;0.77;;;0.47;;
74849;SDS011;63397;47.480;19.238;2023-04-25T13:23:25;4.13;;;0.60;;
74849;SDS011;63397;47.480;19.238;2023-04-25T13:26:28;1.03;;;0.40;;
74849;SDS011;63397;47.480;19.238;2023-04-25T13:29:30;1.20;;;0.47;;
74849;SDS011;63397;47.480;19.238;2023-04-25T13:32:33;1.00;;;0.50;;
74849;SDS011;63397;47.480;19.238;2023-04-25T13:35:36;2.28;;;0.50;;
74849;SDS011;63397;47.480;19.238;2023-04-25T13:38:39;2.00;;;0.50;;
74849;SDS011;63397;47.480;19.238;2023-04-25T13:41:43;1.97;;;0.70;;
74849;SDS011;63397;47.480;19.238;2023-04-25T13:44:45;1.65;;;0.70;;
74849;SDS011;63397;47.480;19.238;2023-04-25T13:47:48;1.33;;;0.57;;
74849;SDS011;63397;47.480;19.238;2023-04-25T13:50:50;2.20;;;0.90;;
74849;SDS011;63397;47.480;19.238;2023-04-25T13:53:52;2.08;;;0.63;;
74849;SDS011;63397;47.480;19.238;2023-04-25T13:56:55;1.93;;;0.80;;
74849;SDS011;63397;47.480;19.238;2023-04-25T14:00:00;2.00;;;0.90;;
74849;SDS011;63397;47.480;19.238;2023-04-25T14:03:10;2.20;;;0.82;;
74849;SDS011;63397;47.480;19.238;2023-04-25T14:06:13;1.60;;;0.77;;
74849;SDS011;63397;47.480;19.238;2023-04-25T14:09:15;1.60;;;0.75;;
74849;SDS011;63397;47.480;19.238;2023-04-25T14:12:18;2.23;;;0.90;;
74849;SDS011;63397;47.480;19.238;2023-04-25T14:15:20;1.23;;;0.65;;
74849;SDS011;63397;47.480;19.238;2023-04-25T14:18:22;2.03;;;0.80;;
74849;SDS011;63397;47.480;19.238;2023-04-25T14:21:25;1.70;;;0.90;;
74849;SDS011;63397;47.480;19.238;2023-04-25T14:24:27;1.45;;;0.70;;
74849;SDS011;63397;47.480;19.238;2023-04-25T14:27:29;1.90;;;0.80;;
74849;SDS011;63397;47.480;19.238;2023-04-25T14:30:34;2.35;;;0.70;;
74849;SDS011;63397;47.480;19.238;2023-04-25T14:33:37;1.98;;;0.88;;
74849;SDS011;63397;47.480;19.238;2023-04-25T14:36:41;2.17;;;1.00;;
74849;SDS011;63397;47.480;19.238;2023-04-25T14:39:43;2.00;;;0.95;;
74849;SDS011;63397;47.480;19.238;2023-04-25T14:42:47;1.60;;;0.80;;
74849;SDS011;63397;47.480;19.238;2023-04-25T14:45:49;2.97;;;1.00;;
74849;SDS011;63397;47.480;19.238;2023-04-25T14:48:52;3.97;;;0.90;;
74849;SDS011;63397;47.480;19.238;2023-04-25T14:51:54;1.95;;;1.00;;
74849;SDS011;63397;47.480;19.238;2023-04-25T14:54:57;3.55;;;0.90;;
74849;SDS011;63397;47.480;19.238;2023-04-25T14:57:59;2.83;;;1.00;;
74849;SDS011;63397;47.480;19.238;2023-04-25T15:01:01;1.92;;;0.77;;
74849;SDS011;63397;47.480;19.238;2023-04-25T15:04:04;2.33;;;1.02;;
74849;SDS011;63397;47.480;19.238;2023-04-25T15:07:07;4.43;;;1.13;;
74849;SDS011;63397;47.480;19.238;2023-04-25T15:10:10;2.83;;;1.20;;
74849;SDS011;63397;47.480;19.238;2023-04-25T15:13:17;2.33;;;0.90;;
74849;SDS011;63397;47.480;19.238;2023-04-25T15:16:20;1.90;;;0.90;;
74849;SDS011;63397;47.480;19.238;2023-04-25T15:19:22;3.03;;;1.30;;
74849;SDS011;63397;47.480;19.238;2023-04-25T15:22:25;1.88;;;0.80;;
74849;SDS011;63397;47.480;19.238;2023-04-25T15:25:28;2.40;;;1.10;;
74849;SDS011;63397;47.480;19.238;2023-04-25T15:28:30;2.20;;;0.70;;
74849;SDS011;63397;47.480;19.238;2023-04-25T15:31:33;2.33;;;0.90;;
74849;SDS011;63397;47.480;19.238;2023-04-25T15:34:35;2.00;;;0.90;;
74849;SDS011;63397;47.480;19.238;2023-04-25T15:37:38;1.80;;;0.90;;
74849;SDS011;63397;47.480;19.238;2023-04-25T15:40:41;2.13;;;1.10;;
74849;SDS011;63397;47.480;19.238;2023-04-25T15:43:43;1.33;;;0.60;;
74849;SDS011;63397;47.480;19.238;2023-04-25T15:46:45;2.65;;;1.00;;
74849;SDS011;63397;47.480;19.238;2023-04-25T15:49:48;2.20;;;1.00;;
74849;SDS011;63397;47.480;19.238;2023-04-25T15:52:50;2.03;;;0.90;;
74849;SDS011;63397;47.480;19.238;2023-04-25T15:55:53;2.72;;;0.98;;
74849;SDS011;63397;47.480;19.238;2023-04-25T15:58:55;1.80;;;0.90;;
74849;SDS011;63397;47.480;19.238;2023-04-25T16:01:57;2.47;;;0.95;;
74849;SDS011;63397;47.480;19.238;2023-04-25T16:05:00;2.55;;;1.10;;
74849;SDS011;63397;47.480;19.238;2023-04-25T16:08:03;3.00;;;1.00;;
74849;SDS011;63397;47.480;19.238;2023-04-25T16:11:06;1.92;;;1.00;;
74849;SDS011;63397;47.480;19.238;2023-04-25T16:14:09;2.80;;;1.20;;
74849;SDS011;63397;47.480;19.238;2023-04-25T16:17:11;2.72;;;1.20;;
74849;SDS011;63397;47.480;19.238;2023-04-25T16:20:13;2.30;;;1.00;;
74849;SDS011;63397;47.480;19.238;2023-04-25T16:23:16;3.00;;;1.30;;
74849;SDS011;63397;47.480;19.238;2023-04-25T16:26:18;4.85;;;1.63;;
74849;SDS011;63397;47.480;19.238;2023-04-25T16:29:21;3.93;;;1.60;;
74849;SDS011;63397;47.480;19.238;2023-04-25T16:32:23;3.47;;;1.80;;
74849;SDS011;63397;47.480;19.238;2023-04-25T16:35:25;3.65;;;1.80;;
74849;SDS011;63397;47.480;19.238;2023-04-25T16:38:31;3.90;;;1.70;;
74849;SDS011;63397;47.480;19.238;2023-04-25T16:41:33;4.25;;;1.70;;
74849;SDS011;63397;47.480;19.238;2023-04-25T16:44:36;3.57;;;1.63;;
74849;SDS011;63397;47.480;19.238;2023-04-25T16:47:38;3.50;;;1.50;;
74849;SDS011;63397;47.480;19.238;2023-04-25T16:50:40;3.92;;;1.83;;
74849;SDS011;63397;47.480;19.238;2023-04-25T16:53:42;4.85;;;1.75;;
74849;SDS011;63397;47.480;19.238;2023-04-25T16:56:45;5.97;;;2.33;;
74849;SDS011;63397;47.480;19.238;2023-04-25T16:59:47;4.10;;;2.07;;
74849;SDS011;63397;47.480;19.238;2023-04-25T17:02:50;4.32;;;2.03;;
74849;SDS011;63397;47.480;19.238;2023-04-25T17:05:53;3.95;;;1.92;;
74849;SDS011;63397;47.480;19.238;2023-04-25T17:09:01;6.93;;;2.40;;
74849;SDS011;63397;47.480;19.238;2023-04-25T17:12:03;6.05;;;1.90;;
74849;SDS011;63397;47.480;19.238;2023-04-25T17:15:06;4.80;;;2.50;;
74849;SDS011;63397;47.480;19.238;2023-04-25T17:18:08;6.22;;;2.28;;
74849;SDS011;63397;47.480;19.238;2023-04-25T17:21:12;5.10;;;2.30;;
74849;SDS011;63397;47.480;19.238;2023-04-25T17:24:14;6.35;;;2.72;;
74849;SDS011;63397;47.480;19.238;2023-04-25T17:27:16;4.80;;;2.38;;
74849;SDS011;63397;47.480;19.238;2023-04-25T17:30:19;5.43;;;2.53;;
74849;SDS011;63397;47.480;19.238;2023-04-25T17:33:21;5.97;;;2.70;;
74849;SDS011;63397;47.480;19.238;2023-04-25T17:36:28;5.18;;;2.53;;
74849;SDS011;63397;47.480;19.238;2023-04-25T17:39:30;6.63;;;2.67;;
74849;SDS011;63397;47.480;19.238;2023-04-25T17:42:33;9.18;;;2.65;;
74849;SDS011;63397;47.480;19.238;2023-04-25T17:45:36;6.33;;;2.63;;
74849;SDS011;63397;47.480;19.238;2023-04-25T17:48:38;6.10;;;2.75;;
74849;SDS011;63397;47.480;19.238;2023-04-25T17:51:40;7.47;;;3.17;;
74849;SDS011;63397;47.480;19.238;2023-04-25T17:54:42;7.65;;;2.97;;
74849;SDS011;63397;47.480;19.238;2023-04-25T17:57:45;5.65;;;2.72;;
74849;SDS011;63397;47.480;19.238;2023-04-25T18:00:48;5.83;;;2.60;;
74849;SDS011;63397;47.480;19.238;2023-04-25T18:03:54;6.32;;;2.63;;
74849;SDS011;63397;47.480;19.238;2023-04-25T18:06:56;6.20;;;2.60;;
74849;SDS011;63397;47.480;19.238;2023-04-25T18:09:59;5.60;;;2.67;;
74849;SDS011;63397;47.480;19.238;2023-04-25T18:13:01;5.55;;;2.45;;
74849;SDS011;63397;47.480;19.238;2023-04-25T18:16:04;5.07;;;2.27;;
74849;SDS011;63397;47.480;19.238;2023-04-25T18:19:07;7.95;;;2.65;;
74849;SDS011;63397;47.480;19.238;2023-04-25T18:22:13;7.93;;;3.13;;
74849;SDS011;63397;47.480;19.238;2023-04-25T18:25:15;6.75;;;2.90;;
74849;SDS011;63397;47.480;19.238;2023-04-25T18:28:18;7.00;;;2.47;;
74849;SDS011;63397;47.480;19.238;2023-04-25T18:31:20;7.43;;;2.93;;
74849;SDS011;63397;47.480;19.238;2023-04-25T18:34:26;5.97;;;2.33;;
74849;SDS011;63397;47.480;19.238;2023-04-25T18:37:28;6.30;;;2.30;;